createdAt,value
2017-05-17T00:00:26.685Z,1023.54
2017-05-17T00:01:36.970Z,1023.53
2017-05-17T00:02:46.956Z,1023.51
2017-05-17T00:03:57.515Z,1023.54
2017-05-17T00:05:07.799Z,1023.55
2017-05-17T00:06:18.110Z,1023.54
2017-05-17T00:07:28.405Z,1023.58
2017-05-17T00:08:38.686Z,1023.53
2017-05-17T00:09:49.227Z,1023.48
2017-05-17T00:10:59.529Z,1023.53
2017-05-17T00:12:09.508Z,1023.5
2017-05-17T00:13:19.488Z,1023.52
2017-05-17T00:14:29.782Z,1023.5
2017-05-17T00:15:40.388Z,1023.49
2017-05-17T00:16:50.061Z,1023.47
2017-05-17T00:18:00.349Z,1023.43
2017-05-17T00:19:10.632Z,1023.44
2017-05-17T00:20:20.924Z,1023.48
2017-05-17T00:21:31.454Z,1023.42
2017-05-17T00:22:41.738Z,1023.39
2017-05-17T00:23:52.044Z,1023.41
2017-05-17T00:25:02.324Z,1023.42
2017-05-17T00:26:12.292Z,1023.41
2017-05-17T00:27:22.830Z,1023.44
2017-05-17T00:28:32.872Z,1023.41
2017-05-17T00:29:43.175Z,1023.39
2017-05-17T00:30:53.469Z,1023.42
2017-05-17T00:32:03.123Z,1023.39
2017-05-17T00:33:13.667Z,1023.36
2017-05-17T00:34:23.639Z,1023.39
2017-05-17T00:35:33.925Z,1023.39
2017-05-17T00:36:44.256Z,1023.35
2017-05-17T00:37:54.571Z,1023.32
2017-05-17T00:39:05.099Z,1023.34
2017-05-17T00:40:15.395Z,1023.31
2017-05-17T00:41:25.681Z,1023.32
2017-05-17T00:42:35.967Z,1023.35
2017-05-17T00:43:46.261Z,1023.35
2017-05-17T00:44:56.795Z,1023.36
2017-05-17T00:46:07.081Z,1023.37
2017-05-17T00:47:17.367Z,1023.34
2017-05-17T00:48:27.653Z,1023.35
2017-05-17T00:49:37.937Z,1023.35
2017-05-17T00:50:48.160Z,1023.38
2017-05-17T00:51:58.452Z,1023.37
2017-05-17T00:53:08.746Z,1023.33
2017-05-17T00:54:19.077Z,1023.38
2017-05-17T00:55:29.054Z,1023.36
2017-05-17T00:56:39.592Z,1023.35
2017-05-17T00:57:49.567Z,1023.37
2017-05-17T00:58:59.588Z,1023.31
2017-05-17T01:00:09.879Z,1023.29
2017-05-17T01:01:19.850Z,1023.31
2017-05-17T01:02:30.393Z,1023.32
2017-05-17T01:03:40.681Z,1023.28
2017-05-17T01:04:50.961Z,1023.29
2017-05-17T01:06:01.255Z,1023.28
2017-05-17T01:07:11.240Z,1023.28
2017-05-17T01:08:21.777Z,1023.3
2017-05-17T01:09:32.060Z,1023.29
2017-05-17T01:10:42.032Z,1023.26
2017-05-17T01:11:52.015Z,1023.26
2017-05-17T01:13:02.300Z,1023.25
2017-05-17T01:14:12.220Z,1023.23
2017-05-17T01:15:22.508Z,1023.21
2017-05-17T01:16:32.806Z,1023.21
2017-05-17T01:17:43.088Z,1023.23
2017-05-17T01:18:53.371Z,1023.23
2017-05-17T01:20:03.911Z,1023.16
2017-05-17T01:21:13.876Z,1023.14
2017-05-17T01:22:23.844Z,1023.15
2017-05-17T01:23:33.507Z,1023.1
2017-05-17T01:24:43.805Z,1023.11
2017-05-17T01:25:54.332Z,1023.11
2017-05-17T01:27:04.617Z,1023.08
2017-05-17T01:28:14.900Z,1023.07
2017-05-17T01:29:24.886Z,1023.02
2017-05-17T01:30:34.868Z,1023.02
2017-05-17T01:31:45.471Z,1023.01
2017-05-17T01:32:55.442Z,1023.01
2017-05-17T01:34:05.414Z,1022.96
2017-05-17T01:35:15.388Z,1022.97
2017-05-17T01:36:25.672Z,1022.93
2017-05-17T01:37:35.913Z,1022.91
2017-05-17T01:38:45.883Z,1022.91
2017-05-17T01:39:55.868Z,1022.92
2017-05-17T01:41:05.851Z,1022.89
2017-05-17T01:42:15.831Z,1022.89
2017-05-17T01:43:26.371Z,1022.9
2017-05-17T01:44:36.695Z,1022.89
2017-05-17T01:45:46.985Z,1022.88
2017-05-17T01:46:57.267Z,1022.86
2017-05-17T01:48:07.551Z,1022.86
2017-05-17T01:49:18.093Z,1022.87
2017-05-17T01:50:28.068Z,1022.89
2017-05-17T01:51:38.348Z,1022.86
2017-05-17T01:52:48.638Z,1022.88
2017-05-17T01:53:57.994Z,1022.83
2017-05-17T01:55:08.231Z,1022.83
2017-05-17T01:56:18.517Z,1022.8
2017-05-17T01:57:28.798Z,1022.78
2017-05-17T01:58:39.077Z,1022.77
2017-05-17T01:59:49.069Z,1022.78
2017-05-17T02:00:59.621Z,1022.74
2017-05-17T02:02:09.916Z,1022.72
2017-05-17T02:03:20.200Z,1022.69
2017-05-17T02:04:29.857Z,1022.65
2017-05-17T02:05:40.144Z,1022.66
2017-05-17T02:06:50.368Z,1022.71
2017-05-17T02:08:00.656Z,1022.7
2017-05-17T02:09:10.945Z,1022.67
2017-05-17T02:10:21.243Z,1022.68
2017-05-17T02:11:31.529Z,1022.67
2017-05-17T02:12:42.062Z,1022.67
2017-05-17T02:13:52.401Z,1022.63
2017-05-17T02:15:02.688Z,1022.66
2017-05-17T02:16:12.971Z,1022.67
2017-05-17T02:17:23.313Z,1022.64
2017-05-17T02:18:33.555Z,1022.64
2017-05-17T02:19:43.829Z,1022.64
2017-05-17T02:20:54.125Z,1022.62
2017-05-17T02:22:04.103Z,1022.63
2017-05-17T02:23:14.072Z,1022.65
2017-05-17T02:24:24.293Z,1022.64
2017-05-17T02:25:34.580Z,1022.69
2017-05-17T02:26:44.554Z,1022.7
2017-05-17T02:27:54.839Z,1022.67
2017-05-17T02:29:05.124Z,1022.69
2017-05-17T02:30:15.342Z,1022.69
2017-05-17T02:31:25.635Z,1022.67
2017-05-17T02:32:35.922Z,1022.67
2017-05-17T02:33:46.212Z,1022.65
2017-05-17T02:34:56.202Z,1022.65
2017-05-17T02:36:06.748Z,1022.6
2017-05-17T02:37:16.724Z,1022.6
2017-05-17T02:38:27.029Z,1022.57
2017-05-17T02:39:37.002Z,1022.56
2017-05-17T02:40:46.980Z,1022.57
2017-05-17T02:41:57.204Z,1022.58
2017-05-17T02:43:07.500Z,1022.58
2017-05-17T02:44:17.779Z,1022.54
2017-05-17T02:45:27.768Z,1022.6
2017-05-17T02:46:37.782Z,1022.55
2017-05-17T02:47:48.012Z,1022.54
2017-05-17T02:48:57.996Z,1022.52
2017-05-17T02:50:08.282Z,1022.52
2017-05-17T02:51:18.575Z,1022.52
2017-05-17T02:52:28.550Z,1022.47
2017-05-17T02:53:39.090Z,1022.5
2017-05-17T02:54:48.757Z,1022.48
2017-05-17T02:55:59.041Z,1022.53
2017-05-17T02:57:09.328Z,1022.49
2017-05-17T02:58:19.605Z,1022.49
2017-05-17T02:59:30.142Z,1022.54
2017-05-17T03:00:40.425Z,1022.52
2017-05-17T03:01:50.715Z,1022.57
2017-05-17T03:03:01.009Z,1022.51
2017-05-17T03:04:11.309Z,1022.53
2017-05-17T03:05:21.842Z,1022.54
2017-05-17T03:06:32.129Z,1022.52
2017-05-17T03:07:42.107Z,1022.54
2017-05-17T03:08:52.395Z,1022.51
2017-05-17T03:10:02.677Z,1022.46
2017-05-17T03:11:13.217Z,1022.43
2017-05-17T03:12:23.505Z,1022.46
2017-05-17T03:13:33.472Z,1022.45
2017-05-17T03:14:43.451Z,1022.45
2017-05-17T03:15:53.738Z,1022.46
2017-05-17T03:17:04.277Z,1022.45
2017-05-17T03:18:14.565Z,1022.45
2017-05-17T03:19:24.850Z,1022.44
2017-05-17T03:20:34.820Z,1022.44
2017-05-17T03:21:45.106Z,1022.45
2017-05-17T03:22:55.327Z,1022.42
2017-05-17T03:24:05.614Z,1022.42
2017-05-17T03:25:15.904Z,1022.44
2017-05-17T03:26:26.188Z,1022.44
2017-05-17T03:27:36.472Z,1022.43
2017-05-17T03:28:47.006Z,1022.43
2017-05-17T03:29:57.343Z,1022.44
2017-05-17T03:31:07.631Z,1022.44
2017-05-17T03:32:17.606Z,1022.44
2017-05-17T03:33:27.909Z,1022.42
2017-05-17T03:34:38.448Z,1022.44
2017-05-17T03:35:48.733Z,1022.45
2017-05-17T03:36:59.117Z,1022.46
2017-05-17T03:38:09.406Z,1022.48
2017-05-17T03:39:19.693Z,1022.46
2017-05-17T03:40:35.134Z,1022.48
2017-05-17T03:41:45.109Z,1022.43
2017-05-17T03:42:55.389Z,1022.42
2017-05-17T03:44:05.677Z,1022.44
2017-05-17T03:45:15.951Z,1022.42
2017-05-17T03:46:26.555Z,1022.4
2017-05-17T03:47:36.532Z,1022.39
2017-05-17T03:48:46.189Z,1022.43
2017-05-17T03:49:56.475Z,1022.42
2017-05-17T03:51:06.772Z,1022.39
2017-05-17T03:52:17.363Z,1022.39
2017-05-17T03:53:27.647Z,1022.36
2017-05-17T03:54:37.317Z,1022.37
2017-05-17T03:55:47.603Z,1022.36
2017-05-17T03:56:57.574Z,1022.37
2017-05-17T03:58:08.134Z,1022.38
2017-05-17T03:59:18.417Z,1022.36
2017-05-17T04:00:28.086Z,1022.32
2017-05-17T04:01:39.084Z,1022.4
2017-05-17T04:02:49.376Z,1022.4
2017-05-17T04:03:59.634Z,1022.39
2017-05-17T04:05:09.930Z,1022.41
2017-05-17T04:06:20.212Z,1022.39
2017-05-17T04:07:30.506Z,1022.43
2017-05-17T04:08:40.499Z,1022.41
2017-05-17T04:09:50.720Z,1022.39
2017-05-17T04:11:00.706Z,1022.42
2017-05-17T04:12:10.686Z,1022.43
2017-05-17T04:13:20.345Z,1022.43
2017-05-17T04:14:30.652Z,1022.42
2017-05-17T04:15:41.187Z,1022.42
2017-05-17T04:16:51.163Z,1022.4
2017-05-17T04:18:01.448Z,1022.43
2017-05-17T04:19:11.745Z,1022.39
2017-05-17T04:20:21.724Z,1022.36
2017-05-17T04:21:32.258Z,1022.33
2017-05-17T04:22:42.546Z,1022.3
2017-05-17T04:23:52.825Z,1022.29
2017-05-17T04:25:02.503Z,1022.33
2017-05-17T04:26:12.474Z,1022.3
2017-05-17T04:27:23.016Z,1022.27
2017-05-17T04:28:32.992Z,1022.31
2017-05-17T04:29:43.283Z,1022.24
2017-05-17T04:30:53.571Z,1022.28
2017-05-17T04:32:03.860Z,1022.25
2017-05-17T04:33:14.396Z,1022.21
2017-05-17T04:34:24.691Z,1022.22
2017-05-17T04:35:34.981Z,1022.22
2017-05-17T04:36:44.964Z,1022.16
2017-05-17T04:37:55.247Z,1022.17
2017-05-17T04:39:05.494Z,1022.14
2017-05-17T04:40:15.470Z,1022.08
2017-05-17T04:41:25.749Z,1022.1
2017-05-17T04:42:35.721Z,1022.1
2017-05-17T04:43:46.016Z,1022.11
2017-05-17T04:44:56.603Z,1022.05
2017-05-17T04:46:06.588Z,1022.07
2017-05-17T04:47:16.553Z,1022.07
2017-05-17T04:48:26.847Z,1022.06
2017-05-17T04:49:36.818Z,1022.07
2017-05-17T04:50:47.380Z,1022.11
2017-05-17T04:51:57.676Z,1022.05
2017-05-17T04:53:07.961Z,1022.07
2017-05-17T04:54:17.940Z,1022.02
2017-05-17T04:55:28.242Z,1022.04
2017-05-17T04:56:38.838Z,1022.06
2017-05-17T04:57:48.821Z,1022.08
2017-05-17T04:58:58.815Z,1022.09
2017-05-17T05:00:08.797Z,1022.09
2017-05-17T05:01:19.078Z,1022.05
2017-05-17T05:02:29.001Z,1022.11
2017-05-17T05:03:39.303Z,1022.1
2017-05-17T05:04:49.602Z,1022.14
2017-05-17T05:05:59.891Z,1022.1
2017-05-17T05:07:10.179Z,1022.12
2017-05-17T05:08:20.405Z,1022.11
2017-05-17T05:09:30.704Z,1022.12
2017-05-17T05:10:40.356Z,1022.15
2017-05-17T05:11:50.661Z,1022.14
2017-05-17T05:13:00.639Z,1022.17
2017-05-17T05:14:10.864Z,1022.16
2017-05-17T05:15:21.169Z,1022.14
2017-05-17T05:16:31.159Z,1022.15
2017-05-17T05:17:41.453Z,1022.17
2017-05-17T05:18:51.430Z,1022.13
2017-05-17T05:20:02.039Z,1022.14
2017-05-17T05:21:12.379Z,1022.12
2017-05-17T05:22:22.678Z,1022.11
2017-05-17T05:23:32.995Z,1022.09
2017-05-17T05:24:42.665Z,1022.08
2017-05-17T05:25:52.890Z,1022.11
2017-05-17T05:27:03.186Z,1022.14
2017-05-17T05:28:13.483Z,1022.1
2017-05-17T05:29:23.783Z,1022.09
2017-05-17T05:30:34.092Z,1022.1
2017-05-17T05:31:45.019Z,1022.11
2017-05-17T05:32:55.325Z,1022.09
2017-05-17T05:34:05.305Z,1022.06
2017-05-17T05:35:15.603Z,1022.08
2017-05-17T05:36:25.900Z,1022.11
2017-05-17T05:37:36.437Z,1022.09
2017-05-17T05:38:46.802Z,1022.06
2017-05-17T05:39:56.490Z,1022.07
2017-05-17T05:41:06.556Z,1022.06
2017-05-17T05:42:16.582Z,1022.04
2017-05-17T05:43:27.129Z,1022.04
2017-05-17T05:44:37.432Z,1022.01
2017-05-17T05:45:47.787Z,1022.01
2017-05-17T05:46:57.768Z,1022
2017-05-17T05:48:08.122Z,1021.99
2017-05-17T05:49:18.721Z,1022.01
2017-05-17T05:50:29.034Z,1022
2017-05-17T05:51:39.337Z,1022.03
2017-05-17T05:52:49.334Z,1022.01
2017-05-17T05:53:59.671Z,1022.05
2017-05-17T05:55:10.229Z,1022.01
2017-05-17T05:56:20.607Z,1022
2017-05-17T05:57:30.905Z,1022.01
2017-05-17T05:58:41.246Z,1022.02
2017-05-17T05:59:51.547Z,1022.01
2017-05-17T06:01:02.137Z,1022.07
2017-05-17T06:02:12.171Z,1022.05
2017-05-17T06:03:22.555Z,1022.05
2017-05-17T06:04:32.858Z,1022.04
2017-05-17T06:05:43.167Z,1022.07
2017-05-17T06:06:53.719Z,1022.08
2017-05-17T06:08:04.033Z,1022.04
2017-05-17T06:09:13.750Z,1022.06
2017-05-17T06:10:24.111Z,1022.03
2017-05-17T06:11:34.407Z,1022.02
2017-05-17T06:12:45.012Z,1022
2017-05-17T06:13:54.994Z,1021.99
2017-05-17T06:15:04.984Z,1022
2017-05-17T06:16:15.274Z,1021.98
2017-05-17T06:17:25.563Z,1022.03
2017-05-17T06:18:35.810Z,1021.99
2017-05-17T06:19:45.474Z,1022
2017-05-17T06:20:55.755Z,1022.02
2017-05-17T06:22:05.739Z,1022.03
2017-05-17T06:23:15.737Z,1022.01
2017-05-17T06:24:25.678Z,1021.95
2017-05-17T06:25:36.025Z,1021.95
2017-05-17T06:26:46.014Z,1021.94
2017-05-17T06:27:56.357Z,1021.94
2017-05-17T06:29:06.668Z,1021.95
2017-05-17T06:30:17.270Z,1021.94
2017-05-17T06:31:27.807Z,1021.92
2017-05-17T06:32:37.788Z,1021.93
2017-05-17T06:33:48.079Z,1021.95
2017-05-17T06:34:58.062Z,1021.94
2017-05-17T06:36:08.607Z,1021.95
2017-05-17T06:37:18.900Z,1021.95
2017-05-17T06:38:29.250Z,1021.95
2017-05-17T06:39:39.538Z,1021.98
2017-05-17T06:40:49.528Z,1021.95
2017-05-17T06:41:59.767Z,1021.94
2017-05-17T06:43:10.074Z,1021.93
2017-05-17T06:44:20.369Z,1021.94
2017-05-17T06:45:30.673Z,1021.94
2017-05-17T06:46:40.988Z,1021.95
2017-05-17T06:47:51.560Z,1021.92
2017-05-17T06:49:01.597Z,1021.92
2017-05-17T06:50:11.970Z,1021.9
2017-05-17T06:51:22.206Z,1021.88
2017-05-17T06:52:32.189Z,1021.91
2017-05-17T06:53:42.778Z,1021.93
2017-05-17T06:54:53.111Z,1021.91
2017-05-17T06:56:03.115Z,1021.89
2017-05-17T06:57:13.455Z,1021.93
2017-05-17T06:58:23.765Z,1021.91
2017-05-17T06:59:34.308Z,1021.91
2017-05-17T07:00:44.612Z,1021.92
2017-05-17T07:01:54.605Z,1021.92
2017-05-17T07:03:04.903Z,1021.9
2017-05-17T07:04:15.203Z,1021.88
2017-05-17T07:05:25.779Z,1021.86
2017-05-17T07:06:36.091Z,1021.85
2017-05-17T07:07:46.409Z,1021.85
2017-05-17T07:08:56.726Z,1021.81
2017-05-17T07:10:07.233Z,1021.84
2017-05-17T07:11:17.796Z,1021.81
2017-05-17T07:12:28.121Z,1021.81
2017-05-17T07:13:38.425Z,1021.76
2017-05-17T07:14:48.729Z,1021.74
2017-05-17T07:15:58.720Z,1021.71
2017-05-17T07:17:09.269Z,1021.73
2017-05-17T07:18:19.250Z,1021.71
2017-05-17T07:19:29.563Z,1021.74
2017-05-17T07:20:39.870Z,1021.71
2017-05-17T07:21:49.845Z,1021.68
2017-05-17T07:23:00.452Z,1021.72
2017-05-17T07:24:10.506Z,1021.71
2017-05-17T07:25:20.502Z,1021.7
2017-05-17T07:26:30.822Z,1021.69
2017-05-17T07:27:40.799Z,1021.66
2017-05-17T07:28:51.381Z,1021.66
2017-05-17T07:30:01.377Z,1021.65
2017-05-17T07:31:11.663Z,1021.7
2017-05-17T07:32:21.954Z,1021.68
2017-05-17T07:33:32.254Z,1021.72
2017-05-17T07:34:42.806Z,1021.69
2017-05-17T07:35:53.124Z,1021.65
2017-05-17T07:37:03.428Z,1021.68
2017-05-17T07:38:13.420Z,1021.67
2017-05-17T07:39:23.720Z,1021.7
2017-05-17T07:40:33.959Z,1021.67
2017-05-17T07:41:44.248Z,1021.63
2017-05-17T07:42:54.240Z,1021.63
2017-05-17T07:44:04.232Z,1021.66
2017-05-17T07:45:14.522Z,1021.63
2017-05-17T07:46:25.074Z,1021.66
2017-05-17T07:47:35.406Z,1021.6
2017-05-17T07:48:45.393Z,1021.62
2017-05-17T07:49:55.679Z,1021.6
2017-05-17T07:51:05.982Z,1021.54
2017-05-17T07:52:16.531Z,1021.57
2017-05-17T07:53:26.848Z,1021.51
2017-05-17T07:54:36.838Z,1021.57
2017-05-17T07:55:47.177Z,1021.54
2017-05-17T07:56:57.478Z,1021.5
2017-05-17T07:58:08.025Z,1021.46
2017-05-17T07:59:18.323Z,1021.44
2017-05-17T08:00:28.616Z,1021.45
2017-05-17T08:01:38.591Z,1021.43
2017-05-17T08:02:48.282Z,1021.44
2017-05-17T08:03:58.568Z,1021.41
2017-05-17T08:05:08.855Z,1021.36
2017-05-17T08:06:18.839Z,1021.39
2017-05-17T08:07:28.827Z,1021.39
2017-05-17T08:08:38.812Z,1021.34
2017-05-17T08:09:49.360Z,1021.39
2017-05-17T08:10:59.647Z,1021.35
2017-05-17T08:12:09.953Z,1021.35
2017-05-17T08:13:19.930Z,1021.36
2017-05-17T08:14:30.229Z,1021.38
2017-05-17T08:15:40.772Z,1021.37
2017-05-17T08:16:50.438Z,1021.37
2017-05-17T08:18:00.724Z,1021.33
2017-05-17T08:19:11.053Z,1021.35
2017-05-17T08:20:21.342Z,1021.31
2017-05-17T08:21:31.989Z,1021.32
2017-05-17T08:22:41.983Z,1021.29
2017-05-17T08:23:52.299Z,1021.26
2017-05-17T08:25:02.314Z,1021.25
2017-05-17T08:26:12.609Z,1021.23
2017-05-17T08:27:22.527Z,1021.23
2017-05-17T08:28:32.881Z,1021.22
2017-05-17T08:29:42.870Z,1021.18
2017-05-17T08:30:53.189Z,1021.19
2017-05-17T08:32:02.861Z,1021.18
2017-05-17T08:33:13.408Z,1021.21
2017-05-17T08:34:23.083Z,1021.15
2017-05-17T08:35:33.079Z,1021.16
2017-05-17T08:36:43.380Z,1021.15
2017-05-17T08:37:53.673Z,1021.11
2017-05-17T08:39:03.915Z,1021.16
2017-05-17T08:40:13.985Z,1021.08
2017-05-17T08:41:24.277Z,1021.06
2017-05-17T08:42:34.592Z,1021.02
2017-05-17T08:43:44.586Z,1021.06
2017-05-17T08:44:54.833Z,1021.05
2017-05-17T08:46:05.158Z,1021.05
2017-05-17T08:47:15.168Z,1021.05
2017-05-17T08:48:25.165Z,1021.04
2017-05-17T08:49:35.484Z,1021.09
2017-05-17T08:50:46.029Z,1021.06
2017-05-17T08:51:56.334Z,1020.98
2017-05-17T08:53:06.336Z,1021.05
2017-05-17T08:54:16.336Z,1021.09
2017-05-17T08:55:26.688Z,1021
2017-05-17T08:56:36.929Z,1021
2017-05-17T08:57:46.918Z,1020.98
2017-05-17T08:58:57.230Z,1020.96
2017-05-17T09:00:07.576Z,1020.9
2017-05-17T09:01:17.867Z,1020.89
2017-05-17T09:02:28.420Z,1020.92
2017-05-17T09:03:38.730Z,1020.89
2017-05-17T09:04:48.787Z,1020.85
2017-05-17T09:05:59.122Z,1020.83
2017-05-17T09:07:09.443Z,1020.8
2017-05-17T09:08:20.053Z,1020.8
2017-05-17T09:09:30.343Z,1020.76
2017-05-17T09:10:40.642Z,1020.78
2017-05-17T09:11:51.011Z,1020.78
2017-05-17T09:13:01.016Z,1020.76
2017-05-17T09:14:11.633Z,1020.72
2017-05-17T09:15:21.668Z,1020.72
2017-05-17T09:16:31.973Z,1020.69
2017-05-17T09:17:42.268Z,1020.73
2017-05-17T09:18:51.933Z,1020.65
2017-05-17T09:20:02.481Z,1020.67
2017-05-17T09:21:12.512Z,1020.66
2017-05-17T09:22:22.818Z,1020.66
2017-05-17T09:23:32.844Z,1020.64
2017-05-17T09:24:43.177Z,1020.66
2017-05-17T09:25:53.782Z,1020.63
2017-05-17T09:27:03.846Z,1020.61
2017-05-17T09:28:13.829Z,1020.56
2017-05-17T09:29:24.147Z,1020.55
2017-05-17T09:30:34.445Z,1020.53
2017-05-17T09:31:45.058Z,1020.52
2017-05-17T09:32:55.050Z,1020.5
2017-05-17T09:34:05.044Z,1020.51
2017-05-17T09:35:15.033Z,1020.49
2017-05-17T09:36:25.326Z,1020.49
2017-05-17T09:37:35.887Z,1020.45
2017-05-17T09:38:45.870Z,1020.43
2017-05-17T09:39:55.862Z,1020.41
2017-05-17T09:41:06.167Z,1020.4
2017-05-17T09:42:16.456Z,1020.42
2017-05-17T09:43:26.098Z,1020.44
2017-05-17T09:44:35.955Z,1020.36
2017-05-17T09:45:45.998Z,1020.42
2017-05-17T09:46:56.396Z,1020.38
2017-05-17T09:48:06.815Z,1020.38
2017-05-17T09:49:17.422Z,1020.43
2017-05-17T09:50:27.436Z,1020.38
2017-05-17T09:51:37.424Z,1020.41
2017-05-17T09:52:47.713Z,1020.42
2017-05-17T09:53:58.011Z,1020.45
2017-05-17T09:55:08.256Z,1020.34
2017-05-17T09:56:18.557Z,1020.36
2017-05-17T09:57:28.534Z,1020.35
2017-05-17T09:58:38.827Z,1020.32
2017-05-17T09:59:48.864Z,1020.27
2017-05-17T10:00:58.786Z,1020.3
2017-05-17T10:02:08.471Z,1020.28
2017-05-17T10:03:18.766Z,1020.27
2017-05-17T10:04:29.064Z,1020.22
2017-05-17T10:05:39.084Z,1020.18
2017-05-17T10:06:49.638Z,1020.2
2017-05-17T10:07:59.935Z,1020.2
2017-05-17T10:09:10.230Z,1020.22
2017-05-17T10:10:19.893Z,1020.21
2017-05-17T10:11:29.894Z,1020.2
2017-05-17T10:12:40.447Z,1020.21
2017-05-17T10:13:50.452Z,1020.15
2017-05-17T10:15:00.857Z,1020.12
2017-05-17T10:16:10.871Z,1020.09
2017-05-17T10:17:20.873Z,1020.06
2017-05-17T10:18:31.405Z,1020.05
2017-05-17T10:19:41.711Z,1020.05
2017-05-17T10:20:52.025Z,1020.03
2017-05-17T10:22:02.326Z,1019.99
2017-05-17T10:23:12.311Z,1019.97
2017-05-17T10:24:22.849Z,1019.99
2017-05-17T10:25:33.187Z,1020.01
2017-05-17T10:26:43.491Z,1020.02
2017-05-17T10:27:53.799Z,1019.98
2017-05-17T10:29:04.108Z,1019.98
2017-05-17T10:30:14.655Z,1019.97
2017-05-17T10:31:24.378Z,1019.99
2017-05-17T10:32:34.680Z,1019.92
2017-05-17T10:33:44.677Z,1019.91
2017-05-17T10:34:54.975Z,1019.94
2017-05-17T10:36:05.512Z,1019.87
2017-05-17T10:37:15.803Z,1019.86
2017-05-17T10:38:25.493Z,1019.82
2017-05-17T10:39:35.788Z,1019.79
2017-05-17T10:40:46.087Z,1019.82
2017-05-17T10:41:56.638Z,1019.81
2017-05-17T10:43:06.945Z,1019.77
2017-05-17T10:44:16.935Z,1019.74
2017-05-17T10:45:27.240Z,1019.72
2017-05-17T10:46:37.538Z,1019.75
2017-05-17T10:47:48.431Z,1019.76
2017-05-17T10:48:58.806Z,1019.78
2017-05-17T10:50:09.107Z,1019.76
2017-05-17T10:51:19.169Z,1019.72
2017-05-17T10:52:29.485Z,1019.71
2017-05-17T10:53:40.028Z,1019.69
2017-05-17T10:54:50.327Z,1019.67
2017-05-17T10:56:00.619Z,1019.65
2017-05-17T10:57:10.920Z,1019.64
2017-05-17T10:58:20.615Z,1019.6
2017-05-17T10:59:31.175Z,1019.59
2017-05-17T11:00:41.471Z,1019.57
2017-05-17T11:01:51.484Z,1019.56
2017-05-17T11:03:01.461Z,1019.58
2017-05-17T11:04:11.790Z,1019.57
2017-05-17T11:05:22.371Z,1019.52
2017-05-17T11:06:32.370Z,1019.53
2017-05-17T11:07:42.690Z,1019.5
2017-05-17T11:08:52.692Z,1019.49
2017-05-17T11:10:03.004Z,1019.47
2017-05-17T11:11:13.534Z,1019.43
2017-05-17T11:12:23.828Z,1019.42
2017-05-17T11:13:34.118Z,1019.38
2017-05-17T11:14:44.438Z,1019.43
2017-05-17T11:15:54.757Z,1019.4
2017-05-17T11:17:05.502Z,1019.33
2017-05-17T11:18:15.483Z,1019.36
2017-05-17T11:19:25.818Z,1019.36
2017-05-17T11:20:36.141Z,1019.33
2017-05-17T11:21:46.240Z,1019.31
2017-05-17T11:22:56.475Z,1019.24
2017-05-17T11:24:06.795Z,1019.29
2017-05-17T11:25:17.099Z,1019.26
2017-05-17T11:26:27.394Z,1019.26
2017-05-17T11:27:37.725Z,1019.25
2017-05-17T11:28:48.272Z,1019.23
2017-05-17T11:29:58.587Z,1019.25
2017-05-17T11:31:08.263Z,1019.24
2017-05-17T11:32:18.682Z,1019.21
2017-05-17T11:33:29.003Z,1019.21
2017-05-17T11:34:39.305Z,1019.2
2017-05-17T11:35:49.637Z,1019.2
2017-05-17T11:36:59.929Z,1019.18
2017-05-17T11:38:10.223Z,1019.14
2017-05-17T11:39:20.236Z,1019.13
2017-05-17T11:40:30.195Z,1019.11
2017-05-17T11:41:40.182Z,1019.07
2017-05-17T11:42:50.177Z,1019.04
2017-05-17T11:44:00.501Z,1019.03
2017-05-17T11:45:10.505Z,1019.01
2017-05-17T11:46:21.052Z,1018.99
2017-05-17T11:47:31.399Z,1019
2017-05-17T11:48:41.391Z,1019
2017-05-17T11:49:51.711Z,1019.01
2017-05-17T11:51:02.009Z,1018.99
2017-05-17T11:52:12.250Z,1019.02
2017-05-17T11:53:22.564Z,1019.03
2017-05-17T11:54:32.572Z,1019
2017-05-17T11:55:42.872Z,1018.96
2017-05-17T11:56:53.174Z,1018.93
2017-05-17T11:58:03.836Z,1018.9
2017-05-17T11:59:13.828Z,1018.87
2017-05-17T12:00:24.133Z,1018.85
2017-05-17T12:01:34.123Z,1018.88
2017-05-17T12:02:44.438Z,1018.86
2017-05-17T12:03:54.994Z,1018.86
2017-05-17T12:05:04.980Z,1018.86
2017-05-17T12:06:15.273Z,1018.82
2017-05-17T12:07:25.259Z,1018.84
2017-05-17T12:08:35.549Z,1018.81
2017-05-17T12:09:46.101Z,1018.78
2017-05-17T12:10:56.093Z,1018.78
2017-05-17T12:12:06.401Z,1018.78
2017-05-17T12:13:16.733Z,1018.77
2017-05-17T12:14:26.703Z,1018.74
2017-05-17T12:15:37.238Z,1018.72
2017-05-17T12:16:47.546Z,1018.68
2017-05-17T12:17:57.865Z,1018.68
2017-05-17T12:19:08.152Z,1018.68
2017-05-17T12:20:18.447Z,1018.67
2017-05-17T12:21:29.026Z,1018.65
2017-05-17T12:22:39.006Z,1018.66
2017-05-17T12:23:49.296Z,1018.66
2017-05-17T12:24:59.606Z,1018.61
2017-05-17T12:26:09.897Z,1018.61
2017-05-17T12:27:20.455Z,1018.61
2017-05-17T12:28:30.753Z,1018.57
2017-05-17T12:29:41.202Z,1018.58
2017-05-17T12:30:51.185Z,1018.62
2017-05-17T12:32:01.176Z,1018.57
2017-05-17T12:33:11.409Z,1018.58
2017-05-17T12:34:21.729Z,1018.56
2017-05-17T12:35:32.017Z,1018.5
2017-05-17T12:36:42.044Z,1018.53
2017-05-17T12:37:52.035Z,1018.45
2017-05-17T12:39:02.637Z,1018.47
2017-05-17T12:40:12.936Z,1018.45
2017-05-17T12:41:22.924Z,1018.36
2017-05-17T12:42:33.227Z,1018.38
2017-05-17T12:43:43.531Z,1018.43
2017-05-17T12:44:54.077Z,1018.45
2017-05-17T12:46:04.072Z,1018.41
2017-05-17T12:47:14.355Z,1018.39
2017-05-17T12:48:24.644Z,1018.37
2017-05-17T12:49:34.946Z,1018.3
2017-05-17T12:50:45.862Z,1018.27
2017-05-17T12:51:56.150Z,1018.27
2017-05-17T12:53:06.511Z,1018.23
2017-05-17T12:54:16.819Z,1018.29
2017-05-17T12:55:26.935Z,1018.27
2017-05-17T12:56:37.494Z,1018.25
2017-05-17T12:57:47.814Z,1018.29
2017-05-17T12:58:58.112Z,1018.25
2017-05-17T13:00:08.416Z,1018.32
2017-05-17T13:01:18.735Z,1018.27
2017-05-17T13:02:29.302Z,1018.22
2017-05-17T13:03:39.609Z,1018.21
2017-05-17T13:04:49.608Z,1018.15
2017-05-17T13:05:59.915Z,1018.16
2017-05-17T13:07:10.208Z,1018.07
2017-05-17T13:08:20.806Z,1018.13
2017-05-17T13:09:30.798Z,1018.1
2017-05-17T13:10:41.098Z,1018.09
2017-05-17T13:11:51.397Z,1018.07
2017-05-17T13:13:01.734Z,1018.02
2017-05-17T13:14:12.270Z,1017.92
2017-05-17T13:15:22.561Z,1017.92
2017-05-17T13:16:32.227Z,1017.89
2017-05-17T13:17:42.539Z,1017.88
2017-05-17T13:18:52.843Z,1017.84
2017-05-17T13:20:03.071Z,1017.81
2017-05-17T13:21:13.061Z,1017.88
2017-05-17T13:22:23.036Z,1017.83
2017-05-17T13:23:33.396Z,1017.82
2017-05-17T13:24:43.694Z,1017.8
2017-05-17T13:25:53.926Z,1017.75
2017-05-17T13:27:03.919Z,1017.76
2017-05-17T13:28:13.910Z,1017.77
2017-05-17T13:29:24.204Z,1017.75
2017-05-17T13:30:34.499Z,1017.77
2017-05-17T13:31:44.733Z,1017.77
2017-05-17T13:32:55.083Z,1017.75
2017-05-17T13:34:05.378Z,1017.8
2017-05-17T13:35:15.678Z,1017.74
2017-05-17T13:36:25.992Z,1017.73
2017-05-17T13:37:36.524Z,1017.69
2017-05-17T13:38:46.820Z,1017.7
2017-05-17T13:39:57.129Z,1017.67
2017-05-17T13:41:07.431Z,1017.63
2017-05-17T13:42:17.434Z,1017.68
2017-05-17T13:43:28.021Z,1017.69
2017-05-17T13:44:38.007Z,1017.66
2017-05-17T13:45:48.293Z,1017.62
2017-05-17T13:46:58.604Z,1017.62
2017-05-17T13:48:09.231Z,1017.57
2017-05-17T13:49:19.776Z,1017.59
2017-05-17T13:50:29.771Z,1017.52
2017-05-17T13:51:40.074Z,1017.52
2017-05-17T13:52:50.056Z,1017.49
2017-05-17T13:54:00.366Z,1017.45
2017-05-17T13:55:10.910Z,1017.4
2017-05-17T13:56:21.222Z,1017.42
2017-05-17T13:57:31.215Z,1017.38
2017-05-17T13:58:41.200Z,1017.38
2017-05-17T13:59:51.512Z,1017.39
2017-05-17T14:01:01.748Z,1017.37
2017-05-17T14:02:12.043Z,1017.34
2017-05-17T14:03:22.040Z,1017.28
2017-05-17T14:04:32.345Z,1017.3
2017-05-17T14:05:42.652Z,1017.27
2017-05-17T14:06:53.204Z,1017.26
2017-05-17T14:08:03.497Z,1017.25
2017-05-17T14:09:13.490Z,1017.15
2017-05-17T14:10:23.783Z,1017.15
2017-05-17T14:11:34.074Z,1017.05
2017-05-17T14:12:44.611Z,1017.03